createdAt,value
2024-02-08T00:00:21.690Z,97672.63
2024-02-08T00:03:14.942Z,97673.69
2024-02-08T00:05:46.922Z,97677.14
2024-02-08T00:08:18.843Z,97676.80
2024-02-08T00:10:50.756Z,97674.90
2024-02-08T00:13:22.688Z,97669.39
2024-02-08T00:15:55.714Z,97673.37
2024-02-08T00:18:28.645Z,97665.95
2024-02-08T00:21:00.508Z,97664.75
2024-02-08T00:23:32.346Z,97663.90
2024-02-08T00:26:04.234Z,97660.27
2024-02-08T00:28:36.261Z,97668.91
2024-02-08T00:31:08.497Z,97670.30
2024-02-08T00:33:40.335Z,97672.72
2024-02-08T00:36:12.604Z,97680.81
2024-02-08T00:38:45.199Z,97678.94
2024-02-08T00:41:17.022Z,97681.16
2024-02-08T00:43:48.849Z,97675.80
2024-02-08T00:46:20.804Z,97681.50
2024-02-08T00:48:55.426Z,97684.77
2024-02-08T00:51:27.328Z,97680.30
2024-02-08T00:54:00.694Z,97673.40
2024-02-08T00:56:32.534Z,97678.04
2024-02-08T00:59:04.475Z,97681.83
2024-02-08T01:01:38.171Z,97684.05
2024-02-08T01:04:12.132Z,97686.48
2024-02-08T01:06:44.254Z,97691.14
2024-02-08T01:09:16.237Z,97689.76
2024-02-08T01:11:48.045Z,97678.37
2024-02-08T01:14:22.847Z,97676.13
2024-02-08T01:16:55.711Z,97678.36
2024-02-08T01:19:27.650Z,97674.39
2024-02-08T01:22:00.055Z,97681.30
2024-02-08T01:24:31.838Z,97673.88
2024-02-08T01:27:05.353Z,97675.44
2024-02-08T01:29:37.185Z,97676.98
2024-02-08T01:32:09.406Z,97669.73
2024-02-08T01:34:42.288Z,97674.40
2024-02-08T01:37:16.085Z,97676.47
2024-02-08T01:39:48.057Z,97677.33
2024-02-08T01:42:20.465Z,97673.02
2024-02-08T01:45:16.161Z,97678.54
2024-02-08T01:47:49.311Z,97679.08
2024-02-08T01:50:21.548Z,97675.96
2024-02-08T01:52:53.682Z,97671.65
2024-02-08T01:55:25.509Z,97667.16
2024-02-08T01:57:57.374Z,97671.13
2024-02-08T02:00:31.766Z,97675.61
2024-02-08T02:03:06.667Z,97672.50
2024-02-08T02:05:42.888Z,97676.30
2024-02-08T02:08:17.681Z,97673.19
2024-02-08T02:10:56.092Z,97673.38
2024-02-08T02:13:29.232Z,97671.30
2024-02-08T02:16:01.165Z,97669.05
2024-02-08T02:18:33.708Z,97670.27
2024-02-08T02:21:05.569Z,97668.70
2024-02-08T02:23:37.750Z,97667.99
2024-02-08T02:26:10.165Z,97667.83
2024-02-08T02:28:43.766Z,97665.24
2024-02-08T02:31:18.328Z,97665.92
2024-02-08T02:33:50.325Z,97663.51
2024-02-08T02:36:22.991Z,97664.38
2024-02-08T02:38:54.801Z,97661.80
2024-02-08T02:41:29.214Z,97663.02
2024-02-08T02:44:01.087Z,97663.72
2024-02-08T02:46:33.210Z,97663.72
2024-02-08T02:49:05.836Z,97664.92
2024-02-08T02:51:37.921Z,97665.27
2024-02-08T02:54:09.696Z,97665.77
2024-02-08T02:56:47.707Z,97659.73
2024-02-08T02:59:19.768Z,97660.75
2024-02-08T03:01:51.630Z,97660.92
2024-02-08T03:04:23.774Z,97657.82
2024-02-08T03:06:55.567Z,97660.08
2024-02-08T03:09:29.502Z,97657.49
2024-02-08T03:12:01.913Z,97653.52
2024-02-08T03:14:35.238Z,97654.21
2024-02-08T03:17:08.079Z,97656.80
2024-02-08T03:19:40.094Z,97658.89
2024-02-08T03:22:11.891Z,97661.81
2024-02-08T03:24:45.560Z,97665.94
2024-02-08T03:27:22.881Z,97666.80
2024-02-08T03:29:55.197Z,97665.94
2024-02-08T03:32:28.952Z,97661.29
2024-02-08T03:35:00.952Z,97661.45
2024-02-08T03:37:33.313Z,97662.83
2024-02-08T03:40:06.146Z,97660.77
2024-02-08T03:42:38.075Z,97654.56
2024-02-08T03:45:14.605Z,97652.49
2024-02-08T03:47:47.164Z,97649.40
2024-02-08T03:50:19.436Z,97649.56
2024-02-08T03:52:51.286Z,97651.80
2024-02-08T03:55:27.644Z,97648.70
2024-02-08T03:58:01.536Z,97650.24
2024-02-08T04:00:34.745Z,97658.20
2024-02-08T04:03:07.569Z,97668.02
2024-02-08T04:05:44.030Z,97671.98
2024-02-08T04:08:44.588Z,97674.23
2024-02-08T04:11:33.828Z,97668.87
2024-02-08T04:14:22.952Z,97668.02
2024-02-08T04:17:12.444Z,97668.34
2024-02-08T04:20:01.917Z,97671.96
2024-02-08T04:22:51.326Z,97670.92
2024-02-08T04:25:40.435Z,97663.67
2024-02-08T04:28:29.788Z,97664.02
2024-02-08T04:31:18.715Z,97661.98
2024-02-08T04:34:08.112Z,97660.95
2024-02-08T04:36:57.218Z,97659.39
2024-02-08T04:39:46.561Z,97659.05
2024-02-08T04:42:35.892Z,97653.52
2024-02-08T04:45:26.340Z,97659.74
2024-02-08T04:48:15.887Z,97656.64
2024-02-08T04:51:05.552Z,97655.25
2024-02-08T04:53:41.045Z,97651.30
2024-02-08T04:56:13.782Z,97652.33
2024-02-08T04:59:08.168Z,97650.77
2024-02-08T05:01:39.491Z,97650.95
2024-02-08T05:04:11.632Z,97653.19
2024-02-08T05:06:46.411Z,97652.84
2024-02-08T05:09:20.958Z,97655.77
2024-02-08T05:11:53.456Z,97659.39
2024-02-08T05:14:26.604Z,97659.91
2024-02-08T05:16:59.838Z,97658.70
2024-02-08T05:19:31.930Z,97661.64
2024-02-08T05:22:04.083Z,97666.30
2024-02-08T05:24:35.874Z,97666.64
2024-02-08T05:27:07.801Z,97665.08
2024-02-08T05:29:42.412Z,97661.27
2024-02-08T05:32:14.230Z,97660.92
2024-02-08T05:34:46.038Z,97661.79
2024-02-08T05:37:18.021Z,97662.66
2024-02-08T05:39:49.948Z,97664.73
2024-02-08T05:42:22.750Z,97664.89
2024-02-08T05:45:14.100Z,97666.27
2024-02-08T05:47:46.650Z,97667.65
2024-02-08T05:50:23.776Z,97671.80
2024-02-08T05:52:58.227Z,97669.89
2024-02-08T05:55:34.667Z,97674.38
2024-02-08T05:58:08.179Z,97683.52
2024-02-08T06:00:47.284Z,97677.13
2024-02-08T06:03:28.887Z,97672.82
2024-02-08T06:06:08.636Z,97675.41
2024-02-08T06:08:42.891Z,97677.15
2024-02-08T06:11:21.090Z,97673.52
2024-02-08T06:13:56.316Z,97676.45
2024-02-08T06:16:30.597Z,97677.14
2024-02-08T06:19:06.124Z,97683.01
2024-02-08T06:21:44.603Z,97685.58
2024-02-08T06:24:33.710Z,97687.65
2024-02-08T06:27:14.809Z,97691.44
2024-02-08T06:29:48.496Z,97688.16
2024-02-08T06:32:44.730Z,97691.96
2024-02-08T06:35:21.697Z,97690.43
2024-02-08T06:38:01.620Z,97690.61
2024-02-08T06:40:52.423Z,97692.16
2024-02-08T06:43:46.824Z,97687.51
2024-02-08T06:46:29.428Z,97681.32
2024-02-08T06:49:18.844Z,97681.14
2024-02-08T06:52:10.374Z,97678.56
2024-02-08T06:54:59.833Z,97681.84
2024-02-08T06:57:49.161Z,97682.34
2024-02-08T07:00:38.788Z,97685.98
2024-02-08T07:03:28.126Z,97680.80
2024-02-08T07:06:18.083Z,97682.70
2024-02-08T07:09:07.425Z,97685.97
2024-02-08T07:11:56.915Z,97687.52
2024-02-08T07:14:45.931Z,97683.72
2024-02-08T07:17:35.280Z,97688.23
2024-02-08T07:20:25.992Z,97685.27
2024-02-08T07:23:29.523Z,97681.32
2024-02-08T07:26:30.121Z,97683.20
2024-02-08T07:29:19.635Z,97692.02
2024-02-08T07:32:08.100Z,97688.21
2024-02-08T07:34:57.416Z,97694.23
2024-02-08T07:37:30.935Z,97692.33
2024-02-08T07:40:03.533Z,97695.27
2024-02-08T07:42:42.850Z,97692.98
2024-02-08T07:45:15.642Z,97688.98
2024-02-08T07:47:58.764Z,97685.19
2024-02-08T07:50:37.071Z,97681.71
2024-02-08T07:53:20.869Z,97676.68
2024-02-08T07:55:59.296Z,97679.62
2024-02-08T07:58:31.173Z,97681.48
2024-02-08T08:01:04.048Z,97682.85
2024-02-08T08:03:36.694Z,97682.09
2024-02-08T08:06:09.164Z,97673.23
2024-02-08T08:08:43.677Z,97675.08
2024-02-08T08:11:18.297Z,97662.06
2024-02-08T08:14:08.403Z,97652.04
2024-02-08T08:17:00.411Z,97655.27
2024-02-08T08:19:40.234Z,97648.85
2024-02-08T08:22:29.899Z,97645.23
2024-02-08T08:25:29.733Z,97644.91
2024-02-08T08:28:31.531Z,97643.23
2024-02-08T08:31:18.466Z,97643.42
2024-02-08T08:34:22.298Z,97643.10
2024-02-08T08:37:04.152Z,97644.11
2024-02-08T08:40:21.977Z,97642.05
2024-02-08T08:42:56.166Z,97643.20
2024-02-08T08:45:28.045Z,97639.88
2024-02-08T08:48:02.535Z,97639.50
2024-02-08T08:50:34.613Z,97641.08
2024-02-08T08:53:18.099Z,97640.89
2024-02-08T08:55:51.932Z,97635.34
2024-02-08T08:58:28.874Z,97636.19
2024-02-08T09:01:13.069Z,97637.88
2024-02-08T09:03:46.271Z,97647.23
2024-02-08T09:06:18.261Z,97645.52
2024-02-08T09:08:56.356Z,97645.34
2024-02-08T09:11:29.269Z,97636.73
2024-02-08T09:14:11.548Z,97635.09
2024-02-08T09:16:53.500Z,97635.48
2024-02-08T09:19:28.957Z,97634.69
2024-02-08T09:22:03.551Z,97626.88
2024-02-08T09:24:43.620Z,97620.59
2024-02-08T09:27:18.269Z,97613.91
2024-02-08T09:29:57.493Z,97603.89
2024-02-08T09:32:45.756Z,97593.88
2024-02-08T09:35:18.334Z,97601.48
2024-02-08T09:37:50.223Z,97600.66
2024-02-08T09:40:43.803Z,97599.86
2024-02-08T09:43:20.224Z,97596.92
2024-02-08T09:46:07.146Z,97604.15
2024-02-08T09:48:48.206Z,97600.86
2024-02-08T09:51:25.354Z,97604.92
2024-02-08T09:54:16.137Z,97598.29
2024-02-08T09:56:52.928Z,97586.91
2024-02-08T09:59:52.157Z,97581.12
2024-02-08T10:02:34.007Z,97583.65
2024-02-08T10:05:41.426Z,97578.86
2024-02-08T10:08:28.643Z,97572.00
2024-02-08T10:11:24.582Z,97555.74
2024-02-08T10:14:04.176Z,97555.95
2024-02-08T10:16:45.044Z,97560.77
2024-02-08T10:19:29.557Z,97563.21
2024-02-08T10:22:12.187Z,97558.30
2024-02-08T10:25:06.852Z,97560.34
2024-02-08T10:27:39.139Z,97566.91
2024-02-08T10:30:13.786Z,97561.11
2024-02-08T10:32:46.522Z,97551.89
2024-02-08T10:35:21.919Z,97552.73
2024-02-08T10:38:09.034Z,97544.80
2024-02-08T10:40:41.779Z,97534.13
2024-02-08T10:43:19.440Z,97530.58
2024-02-08T10:45:55.212Z,97539.45
2024-02-08T10:48:30.356Z,97535.17
2024-02-08T10:51:04.395Z,97533.23
2024-02-08T10:53:49.772Z,97530.67
2024-02-08T10:56:41.970Z,97527.52
2024-02-08T10:59:37.763Z,97534.71
2024-02-08T11:02:32.028Z,97531.37
2024-02-08T11:05:43.082Z,97531.08
2024-02-08T11:08:25.422Z,97516.23
2024-02-08T11:11:04.910Z,97512.49
2024-02-08T11:13:39.402Z,97513.00
2024-02-08T11:16:22.198Z,97511.95
2024-02-08T11:18:56.587Z,97508.02
2024-02-08T11:21:45.124Z,97503.42
2024-02-08T11:24:39.943Z,97500.48
2024-02-08T11:27:14.568Z,97488.34
2024-02-08T11:29:47.612Z,97476.61
2024-02-08T11:32:20.065Z,97479.95
2024-02-08T11:34:56.201Z,97485.55
2024-02-08T11:37:39.763Z,97484.00
2024-02-08T11:40:20.917Z,97489.58
2024-02-08T11:42:53.424Z,97491.52
2024-02-08T11:45:28.858Z,97489.48
2024-02-08T11:48:05.629Z,97483.81
2024-02-08T11:50:38.518Z,97478.57
2024-02-08T11:53:10.827Z,97466.84
2024-02-08T11:55:46.340Z,97461.27
2024-02-08T11:58:18.937Z,97460.45
2024-02-08T12:00:54.506Z,97452.23
2024-02-08T12:03:28.080Z,97452.08
2024-02-08T12:06:00.064Z,97449.13
2024-02-08T12:08:37.742Z,97447.74
2024-02-08T12:11:14.984Z,97450.52
2024-02-08T12:13:46.944Z,97449.34
2024-02-08T12:16:19.169Z,97453.57
2024-02-08T12:19:00.766Z,97455.34
2024-02-08T12:21:32.642Z,97456.94
2024-02-08T12:24:04.488Z,97453.55
2024-02-08T12:26:39.846Z,97452.90
2024-02-08T12:29:18.063Z,97454.00
2024-02-08T12:31:51.482Z,97445.95
2024-02-08T12:34:32.647Z,97438.71
2024-02-08T12:37:07.978Z,97429.61
2024-02-08T12:39:44.370Z,97427.22
2024-02-08T12:42:19.705Z,97428.55
2024-02-08T12:44:51.889Z,97428.28
2024-02-08T12:47:24.599Z,97431.31
2024-02-08T12:50:02.409Z,97433.08
2024-02-08T12:52:42.174Z,97424.66
2024-02-08T12:55:20.584Z,97417.06
2024-02-08T12:57:59.835Z,97415.20
2024-02-08T13:00:34.551Z,97407.64
2024-02-08T13:03:08.278Z,97405.77
2024-02-08T13:05:42.174Z,97403.73
2024-02-08T13:08:22.231Z,97402.35
2024-02-08T13:11:00.061Z,97401.71
2024-02-08T13:13:33.146Z,97397.59
2024-02-08T13:16:11.138Z,97397.63
2024-02-08T13:18:44.633Z,97400.55
2024-02-08T13:21:16.850Z,97403.30
2024-02-08T13:23:48.639Z,97402.48
2024-02-08T13:26:29.543Z,97399.23
2024-02-08T13:29:04.921Z,97401.80
2024-02-08T13:31:39.352Z,97397.10
2024-02-08T13:34:11.702Z,97398.48
2024-02-08T13:36:45.113Z,97391.41
2024-02-08T13:39:17.604Z,97393.63
2024-02-08T13:41:49.385Z,97396.08
2024-02-08T13:44:22.223Z,97391.10
2024-02-08T13:46:54.170Z,97387.13
2024-02-08T13:49:26.326Z,97384.70
2024-02-08T13:51:58.473Z,97380.04
2024-02-08T13:54:32.714Z,97378.64
2024-02-08T13:57:13.676Z,97373.27
2024-02-08T13:59:47.367Z,97369.49
2024-02-08T14:02:20.372Z,97373.15
2024-02-08T14:04:56.495Z,97368.00
2024-02-08T14:07:30.120Z,97359.01
2024-02-08T14:10:02.587Z,97364.02
2024-02-08T14:12:35.127Z,97363.17
2024-02-08T14:15:09.222Z,97364.24
2024-02-08T14:17:41.702Z,97363.06
2024-02-08T14:20:27.527Z,97370.16
2024-02-08T14:23:02.084Z,97368.95
2024-02-08T14:25:49.790Z,97363.13
2024-02-08T14:28:21.592Z,97361.43
2024-02-08T14:30:54.047Z,97365.95
2024-02-08T14:33:26.203Z,97367.84
2024-02-08T14:35:58.412Z,97369.38
2024-02-08T14:38:33.735Z,97368.88
2024-02-08T14:41:07.439Z,97367.83
2024-02-08T14:43:42.929Z,97355.75
2024-02-08T14:46:18.997Z,97352.15
2024-02-08T14:48:52.920Z,97350.30
2024-02-08T14:51:31.571Z,97346.50
2024-02-08T14:54:03.502Z,97347.52
2024-02-08T14:56:36.483Z,97348.52
2024-02-08T14:59:14.639Z,97350.27
2024-02-08T15:01:54.017Z,97345.42
2024-02-08T15:04:27.374Z,97348.36
2024-02-08T15:07:08.341Z,97346.97
2024-02-08T15:09:50.516Z,97351.98
2024-02-08T15:12:32.339Z,97353.71
2024-02-08T15:15:07.382Z,97352.88
2024-02-08T15:17:45.126Z,97354.77
2024-02-08T15:20:35.154Z,97350.25
2024-02-08T15:23:32.688Z,97347.44
2024-02-08T15:26:14.141Z,97342.93
2024-02-08T15:28:56.906Z,97342.73
2024-02-08T15:31:48.506Z,97338.39
2024-02-08T15:34:41.359Z,97335.78
2024-02-08T15:37:21.360Z,97329.28
2024-02-08T15:40:11.048Z,97321.67
2024-02-08T15:42:44.825Z,97323.48
2024-02-08T15:45:16.864Z,97317.80
2024-02-08T15:48:02.659Z,97317.48
2024-02-08T15:50:38.075Z,97320.20
2024-02-08T15:53:17.711Z,97318.29
2024-02-08T15:55:57.489Z,97317.65
2024-02-08T15:58:30.765Z,97319.98
2024-02-08T16:01:29.173Z,97319.15
2024-02-08T16:04:01.723Z,97314.64
2024-02-08T16:06:55.480Z,97313.97
2024-02-08T16:09:33.750Z,97313.29
2024-02-08T16:12:23.866Z,97312.24
2024-02-08T16:15:01.737Z,97305.88
2024-02-08T16:17:59.225Z,97301.77
2024-02-08T16:20:39.425Z,97297.67
2024-02-08T16:23:15.726Z,97287.85
2024-02-08T16:25:49.288Z,97284.77
2024-02-08T16:28:24.015Z,97288.25
2024-02-08T16:31:08.327Z,97288.45
2024-02-08T16:33:49.242Z,97285.35
2024-02-08T16:36:36.535Z,97280.02
2024-02-08T16:39:23.273Z,97277.48
2024-02-08T16:42:01.423Z,97280.08
2024-02-08T16:44:39.412Z,97280.76
2024-02-08T16:47:29.065Z,97281.82
2024-02-08T16:50:17.928Z,97290.74
2024-02-08T16:52:59.362Z,97293.80
2024-02-08T16:55:38.957Z,97284.80
2024-02-08T16:58:29.558Z,97279.28
2024-02-08T17:01:07.012Z,97287.34
2024-02-08T17:04:01.609Z,97292.33
2024-02-08T17:06:44.783Z,97288.83
2024-02-08T17:09:25.429Z,97286.71
2024-02-08T17:12:06.586Z,97280.30
2024-02-08T17:14:44.299Z,97263.88
2024-02-08T17:17:36.494Z,97256.80
2024-02-08T17:20:24.263Z,97258.69
2024-02-08T17:23:06.819Z,97254.70
2024-02-08T17:25:44.367Z,97251.05
2024-02-08T17:28:16.715Z,97246.38
2024-02-08T17:31:06.105Z,97240.90
2024-02-08T17:33:48.073Z,97237.52
2024-02-08T17:36:27.484Z,97236.57
2024-02-08T17:39:00.899Z,97240.70
2024-02-08T17:41:39.228Z,97243.13
2024-02-08T17:44:17.275Z,97248.29
2024-02-08T17:46:54.284Z,97244.27
2024-02-08T17:49:26.468Z,97237.22
2024-02-08T17:52:00.866Z,97233.25
2024-02-08T17:54:45.809Z,97232.02
2024-02-08T17:57:25.183Z,97227.99
2024-02-08T18:00:00.853Z,97230.05
2024-02-08T18:02:37.479Z,97224.30
2024-02-08T18:05:15.935Z,97215.80
2024-02-08T18:07:48.501Z,97207.48
2024-02-08T18:10:22.066Z,97208.86
2024-02-08T18:12:56.696Z,97206.96
2024-02-08T18:15:35.988Z,97207.14
2024-02-08T18:18:08.634Z,97204.20
2024-02-08T18:20:42.845Z,97210.10
2024-02-08T18:23:20.190Z,97210.26
2024-02-08T18:25:53.255Z,97208.50
2024-02-08T18:28:26.832Z,97204.33
2024-02-08T18:30:59.126Z,97202.23
2024-02-08T18:33:33.814Z,97190.98
2024-02-08T18:36:09.120Z,97185.50
2024-02-08T18:38:41.205Z,97183.66
2024-02-08T18:41:13.959Z,97183.52
2024-02-08T18:43:48.786Z,97170.44
2024-02-08T18:46:25.501Z,97164.72
2024-02-08T18:49:02.810Z,97163.83
2024-02-08T18:51:35.055Z,97162.24
2024-02-08T18:54:09.611Z,97158.79
2024-02-08T18:56:45.632Z,97153.65
2024-02-08T18:59:18.547Z,97151.38
2024-02-08T19:01:57.359Z,97148.95
2024-02-08T19:04:33.417Z,97148.95
2024-02-08T19:07:06.692Z,97147.91
2024-02-08T19:09:40.817Z,97142.36
2024-02-08T19:12:15.224Z,97143.70
2024-02-08T19:14:48.982Z,97140.20
2024-02-08T19:17:22.749Z,97144.83
2024-02-08T19:19:54.977Z,97144.98
2024-02-08T19:22:29.074Z,97140.98
2024-02-08T19:25:01.303Z,97137.14
2024-02-08T19:27:35.039Z,97135.40
2024-02-08T19:30:09.479Z,97135.91
2024-02-08T19:32:41.377Z,97131.05
2024-02-08T19:35:20.790Z,97127.05
2024-02-08T19:37:52.915Z,97123.07
2024-02-08T19:40:25.550Z,97120.29
2024-02-08T19:42:57.903Z,97117.15
2024-02-08T19:45:32.598Z,97107.63
2024-02-08T19:48:18.826Z,97102.31
2024-02-08T19:50:51.003Z,97100.95
2024-02-08T19:53:29.545Z,97096.84
2024-02-08T19:56:08.814Z,97092.84
2024-02-08T19:58:40.932Z,97095.94
2024-02-08T20:01:17.737Z,97092.11
2024-02-08T20:03:53.524Z,97093.80
2024-02-08T20:06:28.185Z,97092.57
2024-02-08T20:09:01.074Z,97087.92
2024-02-08T20:11:32.907Z,97087.22
2024-02-08T20:14:07.678Z,97090.66
2024-02-08T20:16:43.050Z,97087.05
2024-02-08T20:19:16.013Z,97088.85
2024-02-08T20:21:51.165Z,97091.83
2024-02-08T20:24:24.585Z,97088.58
2024-02-08T20:26:56.397Z,97082.38
2024-02-08T20:29:29.529Z,97085.11
2024-02-08T20:32:01.320Z,97085.61
2024-02-08T20:34:34.528Z,97076.30
2024-02-08T20:37:08.555Z,97088.55
2024-02-08T20:39:42.231Z,97073.54
2024-02-08T20:42:14.326Z,97087.02
2024-02-08T20:44:46.118Z,97066.86
2024-02-08T20:47:20.809Z,97061.30
2024-02-08T20:49:57.198Z,97062.68
2024-02-08T20:52:29.567Z,97052.34
2024-02-08T20:55:01.943Z,97047.14
2024-02-08T20:57:35.137Z,97046.95
2024-02-08T21:00:09.248Z,97052.81
2024-02-08T21:02:42.033Z,97053.30
2024-02-08T21:05:13.944Z,97041.53
2024-02-08T21:07:48.117Z,97039.98
2024-02-08T21:10:26.755Z,97040.14
2024-02-08T21:13:00.819Z,97046.88
2024-02-08T21:15:32.685Z,97043.73
2024-02-08T21:18:07.934Z,97044.95
2024-02-08T21:20:39.733Z,97053.23
2024-02-08T21:23:11.756Z,97048.57
2024-02-08T21:25:43.620Z,97047.33
2024-02-08T21:28:18.951Z,97044.36
2024-02-08T21:30:50.954Z,97043.14
2024-02-08T21:33:23.454Z,97047.30
2024-02-08T21:36:01.178Z,97045.90
2024-02-08T21:38:34.821Z,97039.17
2024-02-08T21:41:07.438Z,97033.56
2024-02-08T21:43:39.316Z,97042.80
2024-02-08T21:46:12.931Z,97038.88
2024-02-08T21:48:44.846Z,97035.17
2024-02-08T21:51:17.889Z,97035.78
2024-02-08T21:53:49.805Z,97022.92
2024-02-08T21:56:22.254Z,97020.98
2024-02-08T21:58:54.028Z,97029.49
2024-02-08T22:01:37.424Z,97016.05
2024-02-08T22:04:10.277Z,96997.12
2024-02-08T22:06:42.364Z,96997.87
2024-02-08T22:09:14.929Z,97000.14
2024-02-08T22:11:54.801Z,96994.14
2024-02-08T22:14:28.556Z,96994.83
2024-02-08T22:17:09.408Z,96997.25
2024-02-08T22:19:44.935Z,96993.77
2024-02-08T22:22:17.391Z,97002.23
2024-02-08T22:24:49.303Z,97008.77
2024-02-08T22:27:21.267Z,97010.35
2024-02-08T22:29:53.259Z,97008.46
2024-02-08T22:32:26.251Z,97000.21
2024-02-08T22:34:58.199Z,97009.71
2024-02-08T22:37:30.184Z,97022.95
2024-02-08T22:40:04.971Z,97010.48
2024-02-08T22:42:38.145Z,97004.40
2024-02-08T22:45:11.093Z,97011.98
2024-02-08T22:47:45.366Z,97023.66
2024-02-08T22:50:18.591Z,97032.38
2024-02-08T22:52:53.629Z,97028.85
2024-02-08T22:55:25.870Z,97023.24
2024-02-08T22:57:57.862Z,97046.67
2024-02-08T23:00:49.028Z,97040.92
2024-02-08T23:03:25.541Z,97035.53
2024-02-08T23:05:59.614Z,97041.02
2024-02-08T23:08:31.637Z,97039.94
2024-02-08T23:11:03.557Z,97040.27
2024-02-08T23:13:35.523Z,97044.19
2024-02-08T23:16:09.397Z,97049.48
2024-02-08T23:18:42.863Z,97044.46
2024-02-08T23:21:14.870Z,97053.41
2024-02-08T23:23:47.023Z,97053.56
2024-02-08T23:26:19.531Z,97051.63
2024-02-08T23:28:54.207Z,97053.84
2024-02-08T23:31:29.179Z,97050.02
2024-02-08T23:34:04.078Z,97049.48
2024-02-08T23:36:36.182Z,97047.91
2024-02-08T23:39:09.193Z,97040.62
2024-02-08T23:41:41.613Z,97039.73
2024-02-08T23:44:13.450Z,97036.79
2024-02-08T23:46:45.390Z,97031.48
2024-02-08T23:49:17.272Z,97031.16
2024-02-08T23:51:49.188Z,97025.63
2024-02-08T23:54:23.547Z,97029.08
2024-02-08T23:56:56.168Z,97026.15
2024-02-08T23:59:29.730Z,97023.77
